Time;durP1;ratioP1;P1;durP2;ratioP2;P2;SDS_P1;SDS_P2;PMS_P1;PMS_P2;Temp;Humidity;BMP_temperature;BMP_pressure;BME280_temperature;BME280_humidity;BME280_pressure;Samples;Min_cycle;Max_cycle;Signal;HPM_P1;HPM_P2
2021/04/18 00:00:18;;;;;;;;;;;;;;;31.12;19.95;100775.44;5078275;28;882;-27
2021/04/18 00:02:47;;;;;;;;;;;;;;;31.08;20.06;100772.31;5092211;28;947;-28
2021/04/18 00:05:13;;;;;;;;;;;;;;;31.23;20.25;100772.09;5098289;28;1909;-28
2021/04/18 00:07:38;;;;;;;;;;;;;;;31.33;19.96;100776.28;5099159;28;779;-28
2021/04/18 00:10:04;;;;;;;;;;;;;;;31.11;20.01;100774.63;5098574;28;834;-31
2021/04/18 00:12:29;;;;;;;;;;;;;;;31.14;20.29;100778.81;5086103;28;1190;-28
2021/04/18 00:14:55;;;;;;;;;;;;;;;31.14;19.95;100776.09;5078432;28;1295;-28
2021/04/18 00:17:20;;;;;;;;;;;;;;;31.09;19.93;100763.13;5088524;28;967;-29
2021/04/18 00:19:46;;;;;;;;;;;;;;;31.06;20.22;100770.88;5098215;28;807;-41
2021/04/18 00:22:11;;;;;;;;;;;;;;;31.09;20.17;100765.00;5098308;28;862;-39
2021/04/18 00:24:37;;;;;;;;;;;;;;;31.10;20.29;100761.22;5098055;28;1922;-41
2021/04/18 00:27:02;;;;;;;;;;;;;;;31.15;20.12;100762.28;5098216;28;870;-39
2021/04/18 00:29:28;;;;;;;;;;;;;;;31.12;20.20;100759.16;5098248;28;786;-35
2021/04/18 00:31:53;;;;;;;;;;;;;;;31.10;20.45;100756.66;5090667;28;998;-41
2021/04/18 00:34:19;;;;;;;;;;;;;;;31.14;19.98;100765.22;5077762;28;752;-42
2021/04/18 00:36:44;;;;;;;;;;;;;;;31.04;19.97;100768.34;5077392;28;839;-39
2021/04/18 00:39:10;;;;;;;;;;;;;;;31.05;20.21;100772.72;5077592;28;765;-40
2021/04/18 00:41:35;;;;;;;;;;;;;;;31.12;20.20;100768.13;5077010;28;842;-41
2021/04/18 00:44:00;;;;;;;;;;;;;;;31.11;20.33;100771.06;5077644;28;1910;-42
2021/04/18 00:46:25;;;;;;;;;;;;;;;31.23;20.02;100780.25;5083313;28;1648;-42
2021/04/18 00:48:51;;;;;;;;;;;;;;;31.13;20.04;100780.66;5077552;28;803;-28
2021/04/18 00:51:16;;;;;;;;;;;;;;;31.10;20.49;100783.81;5077762;28;789;-28
2021/04/18 00:53:41;;;;;;;;;;;;;;;31.30;20.30;100782.94;5077219;28;814;-29
2021/04/18 00:56:07;;;;;;;;;;;;;;;31.31;20.12;100778.38;5077380;28;763;-26
2021/04/18 00:58:32;;;;;;;;;;;;;;;31.18;19.97;100777.31;5077707;28;734;-40
2021/04/18 01:00:58;;;;;;;;;;;;;;;31.20;20.39;100771.69;5077435;28;784;-28
2021/04/18 01:03:23;;;;;;;;;;;;;;;31.16;20.20;100771.28;5096586;28;951;-29
2021/04/18 01:05:48;;;;;;;;;;;;;;;31.08;20.19;100774.22;5097310;28;1962;-28
2021/04/18 01:08:14;;;;;;;;;;;;;;;31.08;20.30;100782.38;5097236;28;741;-30
2021/04/18 01:10:39;;;;;;;;;;;;;;;31.12;20.24;100775.44;5097523;28;890;-27
2021/04/18 01:13:04;;;;;;;;;;;;;;;31.18;20.22;100771.06;5079066;28;1166;-28
2021/04/18 01:15:29;;;;;;;;;;;;;;;31.30;20.34;100777.53;5096954;28;1177;-29
2021/04/18 01:17:55;;;;;;;;;;;;;;;31.15;20.10;100773.16;5081534;28;974;-27
2021/04/18 01:20:21;;;;;;;;;;;;;;;31.01;20.33;100780.47;5076972;28;756;-27
2021/04/18 01:22:46;;;;;;;;;;;;;;;31.27;20.51;100776.06;5076666;28;847;-31
2021/04/18 01:25:13;;;;;;;;;;;;;;;31.42;20.25;100776.91;5077064;28;1890;-31
2021/04/18 01:27:40;;;;;;;;;;;;;;;31.36;19.91;100770.41;5076677;28;776;-27
2021/04/18 01:30:09;;;;;;;;;;;;;;;31.30;20.14;100765.84;5076409;28;877;-27
2021/04/18 01:32:42;;;;;;;;;;;;;;;31.10;20.28;100756.66;5076461;28;966;-26
2021/04/18 01:35:07;;;;;;;;;;;;;;;31.25;20.59;100755.56;5076880;28;715;-29
2021/04/18 01:37:33;;;;;;;;;;;;;;;31.28;20.17;100755.19;5076186;28;772;-28
2021/04/18 01:39:58;;;;;;;;;;;;;;;31.15;20.18;100747.84;5059130;28;933;-29
2021/04/18 01:42:23;;;;;;;;;;;;;;;31.12;20.49;100748.28;5058520;28;791;-40
2021/04/18 01:44:48;;;;;;;;;;;;;;;31.18;20.20;100754.75;5114780;28;1905;-28
2021/04/18 01:47:14;;;;;;;;;;;;;;;31.34;20.23;100756.19;5084462;28;1676;-41
2021/04/18 01:49:39;;;;;;;;;;;;;;;31.19;20.19;100748.28;5074974;28;815;-25
2021/04/18 01:52:04;;;;;;;;;;;;;;;31.12;20.27;100757.28;5075760;28;876;-40
2021/04/18 01:54:29;;;;;;;;;;;;;;;31.18;20.50;100758.28;5076294;28;807;-26
2021/04/18 01:56:55;;;;;;;;;;;;;;;31.32;20.39;100756.41;5076427;28;802;-36
2021/04/18 01:59:20;;;;;;;;;;;;;;;31.21;20.07;100743.47;5076497;28;837;-31
2021/04/18 02:01:45;;;;;;;;;;;;;;;31.11;20.24;100733.88;5076169;28;955;-40
2021/04/18 02:04:16;;;;;;;;;;;;;;;31.22;20.30;100737.81;5076160;28;1965;-33
2021/04/18 02:06:42;;;;;;;;;;;;;;;31.34;20.38;100743.44;5076466;28;880;-27
2021/04/18 02:09:07;;;;;;;;;;;;;;;31.25;19.97;100741.97;5076212;28;870;-27
2021/04/18 02:11:38;;;;;;;;;;;;;;;31.22;20.20;100745.97;5075862;28;870;-27
2021/04/18 02:14:04;;;;;;;;;;;;;;;31.17;20.25;100737.63;5076348;28;855;-27
2021/04/18 02:16:29;;;;;;;;;;;;;;;31.31;20.48;100743.03;5079134;28;1125;-41
2021/04/18 02:18:54;;;;;;;;;;;;;;;31.25;19.98;100737.41;5096334;28;783;-41
2021/04/18 02:21:19;;;;;;;;;;;;;;;31.17;20.17;100751.19;5096051;28;772;-27
2021/04/18 02:23:45;;;;;;;;;;;;;;;31.13;20.31;100750.78;5096353;28;1977;-40
2021/04/18 02:26:10;;;;;;;;;;;;;;;31.23;20.42;100744.91;5096254;28;824;-41
2021/04/18 02:28:35;;;;;;;;;;;;;;;31.36;20.28;100751.38;5096631;28;810;-41
2021/04/18 02:31:01;;;;;;;;;;;;;;;31.26;20.15;100754.53;5096061;28;858;-34
2021/04/18 02:33:26;;;;;;;;;;;;;;;31.19;20.64;100740.97;5078275;28;1266;-41
2021/04/18 02:35:51;;;;;;;;;;;;;;;31.24;20.32;100743.88;5096177;28;847;-26
2021/04/18 02:38:16;;;;;;;;;;;;;;;31.18;20.21;100749.31;5096350;28;763;-40
2021/04/18 02:40:42;;;;;;;;;;;;;;;31.16;20.68;100744.91;5096215;28;732;-30
2021/04/18 02:43:07;;;;;;;;;;;;;;;31.16;20.67;100742.22;5096247;28;890;-41
2021/04/18 02:45:32;;;;;;;;;;;;;;;31.22;20.58;100742.41;5093889;28;1967;-30
2021/04/18 02:47:57;;;;;;;;;;;;;;;31.37;20.72;100734.03;5075702;28;983;-25
2021/04/18 02:50:23;;;;;;;;;;;;;;;31.23;20.50;100734.03;5075972;28;743;-40
2021/04/18 02:52:48;;;;;;;;;;;;;;;31.12;20.78;100731.97;5075924;28;760;-28
2021/04/18 02:55:13;;;;;;;;;;;;;;;31.37;20.60;100726.72;5075846;28;760;-40
2021/04/18 02:57:39;;;;;;;;;;;;;;;31.31;20.46;100727.56;5074649;28;1364;-40
2021/04/18 03:00:04;;;;;;;;;;;;;;;31.32;20.25;100722.94;5075841;28;859;-40
2021/04/18 03:02:30;;;;;;;;;;;;;;;31.36;20.67;100719.63;5082687;28;1263;-40
2021/04/18 03:04:57;;;;;;;;;;;;;;;31.26;20.32;100727.38;5078565;28;1910;-25
2021/04/18 03:07:23;;;;;;;;;;;;;;;31.14;20.49;100719.88;5079104;28;835;-40
2021/04/18 03:09:48;;;;;;;;;;;;;;;31.20;20.52;100728.22;5079082;28;549;-41
2021/04/18 03:12:13;;;;;;;;;;;;;;;31.23;20.72;100719.66;5089037;28;1124;-25
2021/04/18 03:14:38;;;;;;;;;;;;;;;31.32;20.66;100714.78;5099404;28;1121;-25
2021/04/18 03:17:04;;;;;;;;;;;;;;;31.18;20.66;100714.81;5090718;28;970;-27
2021/04/18 03:19:29;;;;;;;;;;;;;;;30.75;20.70;100714.22;5079322;28;736;-39
2021/04/18 03:21:54;;;;;;;;;;;;;;;31.18;20.65;100717.53;5079061;28;723;-40
2021/04/18 03:24:19;;;;;;;;;;;;;;;31.16;20.44;100720.47;5079253;28;1910;-40
2021/04/18 03:26:45;;;;;;;;;;;;;;;30.90;20.00;100708.59;5079587;28;751;-28
2021/04/18 03:29:10;;;;;;;;;;;;;;;30.52;20.18;100709.19;5079067;28;795;-26
2021/04/18 03:31:35;;;;;;;;;;;;;;;30.42;20.60;100713.16;5079009;28;947;-26
2021/04/18 03:34:01;;;;;;;;;;;;;;;30.46;20.53;100713.59;5078870;28;823;-28
2021/04/18 03:36:26;;;;;;;;;;;;;;;30.38;20.77;100722.75;5078820;28;799;-28
2021/04/18 03:38:51;;;;;;;;;;;;;;;30.03;18.42;100715.53;5079066;28;796;-28
2021/04/18 03:41:16;;;;;;;;;;;;;;;28.08;17.80;100711.16;5079062;28;829;-28
2021/04/18 03:43:42;;;;;;;;;;;;;;;27.09;18.63;100705.03;5078666;28;1897;-28
2021/04/18 03:46:07;;;;;;;;;;;;;;;26.53;19.04;100710.53;5084936;28;1582;-28
2021/04/18 03:48:32;;;;;;;;;;;;;;;26.37;19.58;100710.66;5078806;28;861;-32
2021/04/18 03:50:57;;;;;;;;;;;;;;;26.16;19.58;100701.28;5078676;28;747;-29
2021/04/18 03:53:23;;;;;;;;;;;;;;;25.70;20.36;100696.63;5078569;28;783;-41
2021/04/18 03:55:48;;;;;;;;;;;;;;;26.45;22.59;100702.50;5078694;28;736;-41
2021/04/18 03:58:13;;;;;;;;;;;;;;;26.73;23.72;100703.78;5078401;28;775;-32
2021/04/18 04:00:39;;;;;;;;;;;;;;;27.01;23.96;100705.91;5078705;28;997;-26
2021/04/18 04:03:04;;;;;;;;;;;;;;;27.26;24.08;100711.09;5095162;28;998;-30
2021/04/18 04:05:29;;;;;;;;;;;;;;;27.29;23.67;100718.84;5098702;28;1961;-27
2021/04/18 04:07:54;;;;;;;;;;;;;;;26.47;20.41;100718.50;5098828;28;750;-32
2021/04/18 04:10:20;;;;;;;;;;;;;;;25.93;20.72;100715.56;5098412;28;910;-30
2021/04/18 04:12:45;;;;;;;;;;;;;;;25.79;21.22;100715.28;5084425;28;1119;-32
2021/04/18 04:15:11;;;;;;;;;;;;;;;25.53;21.17;100712.81;5077345;28;1056;-31
2021/04/18 04:17:36;;;;;;;;;;;;;;;25.36;21.75;100698.59;5072638;28;1133;-29
2021/04/18 04:20:01;;;;;;;;;;;;;;;25.07;21.84;100707.03;5098376;28;872;-31
2021/04/18 04:22:26;;;;;;;;;;;;;;;25.52;24.26;100709.31;5098135;28;787;-40
2021/04/18 04:24:52;;;;;;;;;;;;;;;25.84;25.02;100705.84;5079739;28;1990;-31
2021/04/18 04:27:19;;;;;;;;;;;;;;;26.00;24.91;100705.78;5098288;28;763;-26
2021/04/18 04:29:44;;;;;;;;;;;;;;;25.93;24.88;100707.47;5097976;28;867;-27
2021/04/18 04:32:09;;;;;;;;;;;;;;;26.07;25.24;100703.22;5088505;28;959;-27
2021/04/18 04:34:34;;;;;;;;;;;;;;;26.20;25.48;100710.72;5077771;28;817;-28
2021/04/18 04:37:00;;;;;;;;;;;;;;;26.18;25.64;100710.03;5077871;28;783;-41
2021/04/18 04:39:25;;;;;;;;;;;;;;;26.11;25.88;100699.13;5078108;28;767;-41
2021/04/18 04:41:50;;;;;;;;;;;;;;;26.18;25.73;100710.03;5078029;28;835;-42
2021/04/18 04:44:16;;;;;;;;;;;;;;;26.28;25.71;100715.22;5077252;28;1894;-41
2021/04/18 04:46:44;;;;;;;;;;;;;;;26.48;25.35;100717.47;5083914;28;1688;-28
2021/04/18 04:49:10;;;;;;;;;;;;;;;26.61;25.28;100722.28;5075877;28;851;-27
2021/04/18 04:51:35;;;;;;;;;;;;;;;26.53;25.58;100713.22;5077090;28;875;-28
2021/04/18 04:54:01;;;;;;;;;;;;;;;26.57;25.38;100712.84;5076815;28;1184;-30
2021/04/18 04:56:26;;;;;;;;;;;;;;;26.75;25.50;100708.00;5077347;28;751;-33
2021/04/18 04:58:51;;;;;;;;;;;;;;;26.59;25.67;100705.44;5077151;28;820;-30
2021/04/18 05:01:16;;;;;;;;;;;;;;;26.94;25.99;100711.22;5076868;28;973;-34
2021/04/18 05:03:42;;;;;;;;;;;;;;;26.92;25.78;100702.47;5075241;28;2396;-41
2021/04/18 05:06:08;;;;;;;;;;;;;;;27.16;25.49;100702.44;5076835;28;811;-44
2021/04/18 05:08:33;;;;;;;;;;;;;;;27.21;25.35;100703.53;5077150;28;855;-42
2021/04/18 05:10:58;;;;;;;;;;;;;;;27.07;25.90;100707.06;5077097;28;790;-44
2021/04/18 05:13:23;;;;;;;;;;;;;;;27.08;25.54;100700.63;5096334;28;1147;-36
2021/04/18 05:15:49;;;;;;;;;;;;;;;27.01;26.26;100703.19;5097111;28;1102;-32
2021/04/18 05:18:14;;;;;;;;;;;;;;;26.96;25.93;100702.94;5079048;28;1010;-42
2021/04/18 05:20:39;;;;;;;;;;;;;;;27.01;25.91;100697.81;5077032;28;862;-30
2021/04/18 05:23:05;;;;;;;;;;;;;;;26.93;26.23;100697.88;5076786;28;868;-29
2021/04/18 05:25:30;;;;;;;;;;;;;;;26.97;26.15;100694.66;5076404;28;1910;-29
2021/04/18 05:27:55;;;;;;;;;;;;;;;26.99;26.22;100689.88;5076078;28;790;-30
2021/04/18 05:30:21;;;;;;;;;;;;;;;26.96;26.08;100689.44;5076879;28;754;-27
2021/04/18 05:32:46;;;;;;;;;;;;;;;26.87;26.49;100694.06;5076512;28;989;-40
2021/04/18 05:35:11;;;;;;;;;;;;;;;27.04;26.29;100697.50;5076574;28;812;-24
2021/04/18 05:37:37;;;;;;;;;;;;;;;27.07;26.30;100696.28;5076639;28;798;-28
2021/04/18 05:40:03;;;;;;;;;;;;;;;27.13;26.48;100692.81;5076706;28;783;-29
2021/04/18 05:42:28;;;;;;;;;;;;;;;26.98;26.41;100692.78;5076459;28;820;-31
2021/04/18 05:44:53;;;;;;;;;;;;;;;26.87;26.44;100697.63;5076271;28;1906;-41
2021/04/18 05:47:19;;;;;;;;;;;;;;;26.83;26.60;100692.75;5076240;28;1558;-27
2021/04/18 05:49:44;;;;;;;;;;;;;;;26.87;26.63;100699.47;5076849;28;827;-26
2021/04/18 05:52:09;;;;;;;;;;;;;;;26.96;26.47;100690.25;5076422;28;712;-26
2021/04/18 05:54:35;;;;;;;;;;;;;;;26.92;26.81;100698.91;5076388;28;843;-42
2021/04/18 05:57:00;;;;;;;;;;;;;;;26.69;26.88;100683.59;5076322;28;829;-26
2021/04/18 05:59:25;;;;;;;;;;;;;;;26.63;26.78;100687.84;5075958;28;845;-27
2021/04/18 06:01:50;;;;;;;;;;;;;;;26.63;26.92;100685.16;5075961;28;958;-32
2021/04/18 06:04:16;;;;;;;;;;;;;;;26.83;26.45;100679.25;5076552;28;1901;-26
2021/04/18 06:06:41;;;;;;;;;;;;;;;26.75;26.48;100681.00;5076332;28;728;-27
2021/04/18 06:09:07;;;;;;;;;;;;;;;26.96;26.30;100681.34;5076381;28;803;-43
2021/04/18 06:11:32;;;;;;;;;;;;;;;27.07;26.68;100688.16;5080015;28;1116;-30
2021/04/18 06:13:57;;;;;;;;;;;;;;;27.31;26.05;100673.56;5094431;28;755;-35
2021/04/18 06:16:23;;;;;;;;;;;;;;;27.37;25.76;100690.91;5092127;28;1178;-36
2021/04/18 06:18:48;;;;;;;;;;;;;;;27.25;25.97;100691.34;5093884;28;921;-32
2021/04/18 06:21:14;;;;;;;;;;;;;;;27.38;26.23;100689.84;5094056;28;866;-34
2021/04/18 06:23:39;;;;;;;;;;;;;;;27.42;25.86;100693.03;5095959;28;1971;-38
2021/04/18 06:26:04;;;;;;;;;;;;;;;27.32;26.08;100694.16;5096091;28;771;-28
2021/04/18 06:28:30;;;;;;;;;;;;;;;27.28;26.06;100687.44;5095540;28;818;-29
2021/04/18 06:30:55;;;;;;;;;;;;;;;27.38;26.12;100690.72;5096275;28;828;-25
2021/04/18 06:33:20;;;;;;;;;;;;;;;27.38;26.25;100692.56;5077066;28;942;-33
2021/04/18 06:35:46;;;;;;;;;;;;;;;27.36;25.98;100694.63;5074646;28;825;-29
2021/04/18 06:38:12;;;;;;;;;;;;;;;27.36;25.99;100708.94;5076166;28;828;-29
2021/04/18 06:40:37;;;;;;;;;;;;;;;27.34;26.29;100699.38;5079731;28;780;-34
2021/04/18 06:43:03;;;;;;;;;;;;;;;27.19;26.50;100713.72;5061111;28;891;-25
2021/04/18 06:45:28;;;;;;;;;;;;;;;27.30;26.36;100725.91;5061444;28;1902;-35
2021/04/18 06:47:53;;;;;;;;;;;;;;;27.28;26.25;100724.44;5081485;28;1021;-34
2021/04/18 06:50:19;;;;;;;;;;;;;;;27.11;26.67;100730.00;5099586;28;755;-33
2021/04/18 06:52:45;;;;;;;;;;;;;;;27.32;26.14;100731.97;5100115;28;811;-28
2021/04/18 06:55:10;;;;;;;;;;;;;;;27.23;26.64;100725.81;5099890;28;826;-32
2021/04/18 06:57:36;;;;;;;;;;;;;;;27.32;26.47;100729.28;5099460;28;854;-33
2021/04/18 07:00:01;;;;;;;;;;;;;;;27.36;26.33;100737.84;5099693;28;1105;-34
2021/04/18 07:02:30;;;;;;;;;;;;;;;27.29;26.17;100740.44;5087495;28;958;-29
2021/04/18 07:04:59;;;;;;;;;;;;;;;27.28;26.51;100741.44;5079165;28;1902;-30
2021/04/18 07:07:28;;;;;;;;;;;;;;;27.34;26.37;100734.47;5079062;28;816;-27
2021/04/18 07:09:53;;;;;;;;;;;;;;;27.22;26.34;100744.91;5079056;28;807;-27
2021/04/18 07:12:25;;;;;;;;;;;;;;;27.25;26.58;100739.13;5086362;28;1175;-29
2021/04/18 07:14:50;;;;;;;;;;;;;;;27.26;26.43;100730.00;5097416;28;1257;-31
2021/04/18 07:17:16;;;;;;;;;;;;;;;27.31;26.26;100740.25;5088505;28;945;-36
2021/04/18 07:19:46;;;;;;;;;;;;;;;27.25;26.57;100739.13;5078770;28;807;-31
2021/04/18 07:22:11;;;;;;;;;;;;;;;27.22;26.81;100729.53;5079820;28;893;-37
2021/04/18 07:24:50;;;;;;;;;;;;;;;27.26;26.58;100721.88;5077375;28;1979;-36
2021/04/18 07:27:15;;;;;;;;;;;;;;;27.18;26.70;100721.97;5078366;28;816;-37
2021/04/18 07:29:41;;;;;;;;;;;;;;;27.27;27.01;100723.59;5079109;28;774;-33
2021/04/18 07:32:19;;;;;;;;;;;;;;;27.29;26.80;100723.41;5078804;28;953;-36
2021/04/18 07:34:44;;;;;;;;;;;;;;;27.28;26.94;100705.53;5078657;28;724;-38
2021/04/18 07:37:10;;;;;;;;;;;;;;;27.29;26.82;100701.78;5078974;28;751;-31
2021/04/18 07:40:11;;;;;;;;;;;;;;;27.25;26.84;100712.97;5077964;28;872;-29
2021/04/18 07:42:38;;;;;;;;;;;;;;;27.02;27.29;100713.88;5016099;28;1297;-37
2021/04/18 07:45:10;;;;;;;;;;;;;;;27.08;27.26;100714.97;5066239;28;1979;-27
2021/04/18 07:47:37;;;;;;;;;;;;;;;27.16;26.63;100722.16;5078606;28;1638;-27
2021/04/18 07:50:20;;;;;;;;;;;;;;;26.97;27.10;100723.50;5077168;28;808;-31
2021/04/18 07:52:46;;;;;;;;;;;;;;;26.94;27.16;100718.47;5078574;28;841;-38
2021/04/18 07:55:12;;;;;;;;;;;;;;;27.06;26.75;100718.91;5078399;28;748;-32
2021/04/18 07:57:37;;;;;;;;;;;;;;;26.93;27.03;100727.56;5077084;28;1492;-32
2021/04/18 08:00:03;;;;;;;;;;;;;;;26.94;27.11;100730.13;5077903;28;798;-26
2021/04/18 08:02:29;;;;;;;;;;;;;;;26.87;27.57;100731.84;5078027;28;962;-27
2021/04/18 08:04:55;;;;;;;;;;;;;;;27.06;27.25;100737.81;5076629;28;1961;-31
2021/04/18 08:07:21;;;;;;;;;;;;;;;27.08;27.49;100736.59;5077968;28;867;-37
2021/04/18 08:09:46;;;;;;;;;;;;;;;27.27;27.04;100726.28;5077125;28;838;-28
2021/04/18 08:12:15;;;;;;;;;;;;;;;27.26;27.04;100727.28;5086337;28;1127;-33
2021/04/18 08:14:41;;;;;;;;;;;;;;;27.22;27.61;100723.28;5097490;28;1280;-37
2021/04/18 08:17:10;;;;;;;;;;;;;;;27.16;26.99;100722.16;5089029;28;934;-39
2021/04/18 08:19:35;;;;;;;;;;;;;;;27.40;26.52;100712.13;5077003;28;490;-37
2021/04/18 08:22:01;;;;;;;;;;;;;;;27.31;26.85;100716.78;5077793;28;755;-35
2021/04/18 08:24:31;;;;;;;;;;;;;;;27.39;27.18;100715.88;5076777;28;1907;-40
2021/04/18 08:27:06;;;;;;;;;;;;;;;27.49;26.66;100712.88;5077515;28;815;-29
2021/04/18 08:29:32;;;;;;;;;;;;;;;27.35;27.13;100709.13;5077764;28;756;-32
2021/04/18 08:32:08;;;;;;;;;;;;;;;27.24;27.28;100718.56;5077713;28;968;-40
2021/04/18 08:34:35;;;;;;;;;;;;;;;27.31;27.30;100700.56;5077459;28;771;-32
2021/04/18 08:37:01;;;;;;;;;;;;;;;27.24;27.01;100708.56;5077941;28;828;-30
2021/04/18 08:39:29;;;;;;;;;;;;;;;27.24;27.42;100705.06;5077667;28;788;-36
2021/04/18 08:41:56;;;;;;;;;;;;;;;27.14;27.43;100708.84;5076991;28;824;-34
2021/04/18 08:44:32;;;;;;;;;;;;;;;27.20;27.50;100704.56;5076851;28;1901;-31
2021/04/18 08:47:07;;;;;;;;;;;;;;;27.11;27.59;100703.00;5072923;28;1544;-40
2021/04/18 08:49:33;;;;;;;;;;;;;;;27.28;27.31;100692.03;5097824;28;779;-30
2021/04/18 08:51:59;;;;;;;;;;;;;;;27.22;27.35;100694.44;5096773;28;1138;-34
2021/04/18 08:54:43;;;;;;;;;;;;;;;27.17;26.92;100696.84;5097616;28;807;-27
2021/04/18 08:57:12;;;;;;;;;;;;;;;27.36;26.90;100691.94;5096728;28;553;-38
2021/04/18 08:59:38;;;;;;;;;;;;;;;27.42;26.80;100688.47;5098190;28;1014;-28
2021/04/18 09:02:07;;;;;;;;;;;;;;;27.31;26.89;100691.66;5088717;28;946;-31
2021/04/18 09:04:33;;;;;;;;;;;;;;;27.21;27.32;100689.22;5076538;28;2333;-36
2021/04/18 09:06:58;;;;;;;;;;;;;;;27.38;26.58;100679.91;5077733;28;787;-30
2021/04/18 09:09:24;;;;;;;;;;;;;;;27.35;26.82;100676.72;5077154;28;767;-37
2021/04/18 09:11:49;;;;;;;;;;;;;;;27.23;27.08;100679.91;5082660;28;1170;-32
2021/04/18 09:14:22;;;;;;;;;;;;;;;27.34;27.01;100677.75;5097130;28;1729;-27
2021/04/18 09:16:48;;;;;;;;;;;;;;;27.33;26.76;100674.22;5089577;28;888;-33
2021/04/18 09:19:22;;;;;;;;;;;;;;;27.23;27.40;100676.34;5096711;28;804;-36
2021/04/18 09:21:58;;;;;;;;;;;;;;;27.38;27.04;100666.41;5097236;28;751;-36
2021/04/18 09:24:23;;;;;;;;;;;;;;;27.41;26.79;100670.56;5097242;28;1906;-35
2021/04/18 09:26:55;;;;;;;;;;;;;;;27.16;27.28;100667.34;5096361;28;763;-36
2021/04/18 09:29:23;;;;;;;;;;;;;;;27.16;27.29;100656.53;5096709;28;835;-36
2021/04/18 09:31:51;;;;;;;;;;;;;;;27.41;26.87;100657.06;5090347;28;942;-35
2021/04/18 09:34:18;;;;;;;;;;;;;;;27.31;27.21;100648.44;5076310;28;763;-34
2021/04/18 09:36:43;;;;;;;;;;;;;;;27.39;26.91;100651.84;5076488;28;918;-34
2021/04/18 09:39:08;;;;;;;;;;;;;;;27.29;26.92;100648.63;5058842;28;764;-36
2021/04/18 09:41:36;;;;;;;;;;;;;;;27.19;27.12;100651.59;5076117;28;855;-27
2021/04/18 09:44:02;;;;;;;;;;;;;;;27.04;27.23;100651.59;5059083;28;1898;-33
2021/04/18 09:46:27;;;;;;;;;;;;;;;26.94;27.46;100646.44;5082753;28;1543;-31
2021/04/18 09:49:02;;;;;;;;;;;;;;;26.82;27.74;100647.88;5075376;28;823;-36
2021/04/18 09:51:27;;;;;;;;;;;;;;;26.94;27.72;100637.50;5076303;28;937;-38
2021/04/18 09:54:04;;;;;;;;;;;;;;;27.04;27.72;100643.50;5075981;28;830;-37
2021/04/18 09:56:30;;;;;;;;;;;;;;;26.99;27.47;100653.97;5076065;28;736;-36
2021/04/18 09:58:55;;;;;;;;;;;;;;;27.20;27.15;100657.81;5074296;28;853;-40
2021/04/18 10:01:27;;;;;;;;;;;;;;;27.24;27.19;100673.47;5075801;28;842;-32
2021/04/18 10:03:53;;;;;;;;;;;;;;;27.27;27.13;100674.97;5076041;28;1902;-29
2021/04/18 10:06:18;;;;;;;;;;;;;;;27.22;27.21;100680.94;5075440;28;763;-35
2021/04/18 10:08:53;;;;;;;;;;;;;;;27.41;26.71;100680.56;5076222;28;829;-31
2021/04/18 10:11:18;;;;;;;;;;;;;;;27.25;27.21;100690.50;5077766;28;1127;-37
2021/04/18 10:14:05;;;;;;;;;;;;;;;27.25;27.20;100688.66;5099211;28;855;-36
2021/04/18 10:16:30;;;;;;;;;;;;;;;27.30;27.14;100696.19;5098867;28;1110;-30
2021/04/18 10:19:02;;;;;;;;;;;;;;;27.21;27.47;100690.03;5082629;28;771;-35
2021/04/18 10:21:31;;;;;;;;;;;;;;;27.07;27.63;100693.56;5099725;28;845;-38
2021/04/18 10:23:56;;;;;;;;;;;;;;;26.99;27.89;100689.06;5116548;28;1972;-33
2021/04/18 10:26:22;;;;;;;;;;;;;;;27.01;27.59;100689.69;5104753;28;923;-30
2021/04/18 10:28:50;;;;;;;;;;;;;;;27.01;27.55;100687.88;5123535;28;863;-39
2021/04/18 10:31:16;;;;;;;;;;;;;;;27.15;27.61;100693.47;5119350;28;1005;-35
2021/04/18 10:33:42;;;;;;;;;;;;;;;27.11;27.43;100700.28;5082074;28;858;-30
2021/04/18 10:36:07;;;;;;;;;;;;;;;27.08;27.37;100692.53;5082700;28;825;-34
2021/04/18 10:38:32;;;;;;;;;;;;;;;27.20;27.22;100703.72;5082570;28;735;-37
2021/04/18 10:40:58;;;;;;;;;;;;;;;27.20;27.44;100701.88;5082396;28;722;-32
2021/04/18 10:43:23;;;;;;;;;;;;;;;27.13;27.57;100696.38;5082485;28;800;-30
2021/04/18 10:45:48;;;;;;;;;;;;;;;27.09;27.77;100688.84;5086716;28;1906;-37
2021/04/18 10:48:13;;;;;;;;;;;;;;;27.14;27.85;100676.44;5081985;28;1077;-32
2021/04/18 10:50:39;;;;;;;;;;;;;;;27.13;27.88;100676.63;5082455;28;840;-35
2021/04/18 10:53:04;;;;;;;;;;;;;;;27.14;27.69;100684.53;5090054;28;878;-34
2021/04/18 10:55:29;;;;;;;;;;;;;;;27.20;27.35;100682.97;5102419;28;790;-30
2021/04/18 10:57:55;;;;;;;;;;;;;;;27.13;27.84;100687.44;5102502;28;1092;-38
2021/04/18 11:00:20;;;;;;;;;;;;;;;27.22;27.76;100686.34;5102877;28;809;-36
2021/04/18 11:02:46;;;;;;;;;;;;;;;27.25;27.81;100682.41;5088099;28;1043;-35
2021/04/18 11:05:14;;;;;;;;;;;;;;;27.46;28.00;100681.66;5082232;28;1981;-28
2021/04/18 11:07:39;;;;;;;;;;;;;;;27.82;26.86;100677.38;5082681;28;772;-30
2021/04/18 11:10:05;;;;;;;;;;;;;;;27.77;27.06;100677.09;5082236;28;751;-30
2021/04/18 11:12:31;;;;;;;;;;;;;;;27.68;27.44;100670.97;5082526;28;973;-40
2021/04/18 11:14:56;;;;;;;;;;;;;;;27.96;27.91;100675.66;5082240;28;1063;-28
2021/04/18 11:17:21;;;;;;;;;;;;;;;28.06;27.78;100671.81;5092369;28;972;-28
2021/04/18 11:19:47;;;;;;;;;;;;;;;28.09;27.50;100679.53;5102670;28;833;-32
2021/04/18 11:22:12;;;;;;;;;;;;;;;28.32;26.60;100675.81;5102645;28;821;-28
2021/04/18 11:24:37;;;;;;;;;;;;;;;28.23;26.94;100675.09;5100764;28;1914;-37
2021/04/18 11:27:03;;;;;;;;;;;;;;;27.82;27.31;100666.56;5099252;28;740;-38
2021/04/18 11:29:28;;;;;;;;;;;;;;;27.75;27.06;100652.97;5099078;28;803;-40
2021/04/18 11:31:54;;;;;;;;;;;;;;;27.82;27.00;100647.66;5091665;28;1065;-26
2021/04/18 11:34:19;;;;;;;;;;;;;;;27.83;27.13;100640.34;5092785;28;1119;-32
2021/04/18 11:36:48;;;;;;;;;;;;;;;27.72;27.31;100644.41;5099373;28;826;-27
2021/04/18 11:39:13;;;;;;;;;;;;;;;27.78;27.01;100640.13;5098663;28;813;-42
2021/04/18 11:41:38;;;;;;;;;;;;;;;27.77;26.82;100638.41;5098932;28;750;-31
2021/04/18 11:44:04;;;;;;;;;;;;;;;27.59;27.39;100640.47;5098673;28;1905;-38
2021/04/18 11:46:30;;;;;;;;;;;;;;;27.55;27.78;100643.72;5092161;28;1650;-37
2021/04/18 11:48:56;;;;;;;;;;;;;;;27.72;27.32;100639.84;5098823;28;923;-32
2021/04/18 11:51:21;;;;;;;;;;;;;;;27.51;28.05;100652.22;5098956;28;755;-29
2021/04/18 11:53:46;;;;;;;;;;;;;;;27.56;27.76;100648.94;5098693;28;805;-33
2021/04/18 11:56:12;;;;;;;;;;;;;;;27.56;27.65;100654.34;5098385;28;851;-32
2021/04/18 11:58:37;;;;;;;;;;;;;;;27.59;27.83;100663.97;5098278;28;816;-30
2021/04/18 12:01:02;;;;;;;;;;;;;;;27.60;27.88;100660.22;5098428;28;787;-28
2021/04/18 12:03:27;;;;;;;;;;;;;;;27.81;27.26;100659.47;5078136;28;990;-34
2021/04/18 12:05:57;;;;;;;;;;;;;;;27.74;27.64;100656.69;5078364;28;1970;-30
2021/04/18 12:08:25;;;;;;;;;;;;;;;27.70;27.72;100651.84;5078151;28;787;-36
2021/04/18 12:10:50;;;;;;;;;;;;;;;27.83;27.35;100660.13;5077910;28;894;-39
2021/04/18 12:13:16;;;;;;;;;;;;;;;27.63;27.92;100652.59;5096412;28;1031;-29
2021/04/18 12:15:44;;;;;;;;;;;;;;;27.53;27.72;100656.63;5098227;28;1232;-30
2021/04/18 12:18:09;;;;;;;;;;;;;;;27.72;27.76;100661.47;5080419;28;1002;-38
2021/04/18 12:20:35;;;;;;;;;;;;;;;27.74;27.53;100661.28;5078166;28;856;-40
2021/04/18 12:23:00;;;;;;;;;;;;;;;27.83;27.62;100673.63;5078008;28;817;-34
2021/04/18 12:25:25;;;;;;;;;;;;;;;27.96;27.42;100681.06;5077242;28;1913;-30
2021/04/18 12:27:50;;;;;;;;;;;;;;;27.91;27.23;100680.78;5077646;28;862;-37
2021/04/18 12:30:16;;;;;;;;;;;;;;;27.94;27.43;100679.59;5090932;28;844;-39
2021/04/18 12:32:45;;;;;;;;;;;;;;;28.08;27.01;100684.09;5083753;28;998;-33
2021/04/18 12:35:11;;;;;;;;;;;;;;;28.01;27.09;100680.47;5066946;28;843;-26
2021/04/18 12:37:36;;;;;;;;;;;;;;;27.89;27.80;100684.72;5077106;28;858;-39
2021/04/18 12:40:01;;;;;;;;;;;;;;;27.97;27.36;100687.31;5077607;28;752;-39
2021/04/18 12:42:26;;;;;;;;;;;;;;;27.91;27.68;100690.78;5077866;28;787;-35
2021/04/18 12:44:52;;;;;;;;;;;;;;;27.81;27.99;100694.59;5077569;28;1906;-30
2021/04/18 12:47:20;;;;;;;;;;;;;;;27.51;27.37;100691.91;5076629;28;1565;-39